createdAt,value
2017-04-22T00:00:05.182Z,0
2017-04-22T00:01:04.866Z,0
2017-04-22T00:02:04.855Z,0
2017-04-22T00:03:04.849Z,0
2017-04-22T00:04:04.536Z,0
2017-04-22T00:05:05.084Z,0
2017-04-22T00:06:04.829Z,0
2017-04-22T00:07:04.823Z,0
2017-04-22T00:08:04.567Z,0
2017-04-22T00:09:04.499Z,0
2017-04-22T00:10:04.739Z,0
2017-04-22T00:11:04.785Z,0
2017-04-22T00:12:04.776Z,0
2017-04-22T00:13:04.768Z,0
2017-04-22T00:14:04.759Z,0
2017-04-22T00:15:04.996Z,0
2017-04-22T00:16:04.743Z,0
2017-04-22T00:17:04.752Z,0
2017-04-22T00:18:04.722Z,0
2017-04-22T00:19:04.717Z,0
2017-04-22T00:20:05.016Z,0
2017-04-22T00:21:04.699Z,0
2017-04-22T00:22:04.781Z,0
2017-04-22T00:23:04.379Z,0
2017-04-22T00:24:04.681Z,0
2017-04-22T00:25:04.915Z,0
2017-04-22T00:26:04.661Z,0
2017-04-22T00:27:04.644Z,0
2017-04-22T00:28:04.637Z,0
2017-04-22T00:29:04.632Z,0
2017-04-22T00:30:04.784Z,0
2017-04-22T00:31:04.615Z,0
2017-04-22T00:32:04.604Z,0
2017-04-22T00:33:04.597Z,0
2017-04-22T00:34:04.605Z,0
2017-04-22T00:35:04.835Z,0
2017-04-22T00:36:04.568Z,0
2017-04-22T00:37:04.556Z,0
2017-04-22T00:38:04.559Z,0
2017-04-22T00:39:04.555Z,0
2017-04-22T00:40:04.834Z,0
2017-04-22T00:41:04.528Z,0
2017-04-22T00:42:04.517Z,0
2017-04-22T00:43:04.205Z,0
2017-04-22T00:44:04.500Z,0
2017-04-22T00:45:04.742Z,0
2017-04-22T00:46:04.485Z,0
2017-04-22T00:47:04.473Z,0
2017-04-22T00:48:04.467Z,0
2017-04-22T00:49:04.455Z,0
2017-04-22T00:50:04.748Z,0
2017-04-22T00:51:04.436Z,0
2017-04-22T00:52:04.425Z,0
2017-04-22T00:53:04.419Z,0
2017-04-22T00:54:04.410Z,0
2017-04-22T00:55:04.703Z,0
2017-04-22T00:56:04.459Z,0
2017-04-22T00:57:04.388Z,0
2017-04-22T00:58:04.377Z,0
2017-04-22T00:59:04.362Z,0
2017-04-22T01:00:04.607Z,0
2017-04-22T01:01:04.345Z,0
2017-04-22T01:02:04.341Z,0
2017-04-22T01:03:04.328Z,0
2017-04-22T01:04:04.320Z,0
2017-04-22T01:05:04.613Z,0
2017-04-22T01:06:04.297Z,0
2017-04-22T01:07:03.985Z,0
2017-04-22T01:08:04.004Z,0
2017-04-22T01:09:03.969Z,0
2017-04-22T01:10:04.513Z,0
2017-04-22T01:11:04.249Z,0
2017-04-22T01:12:04.246Z,0
2017-04-22T01:13:04.237Z,0
2017-04-22T01:14:04.225Z,0
2017-04-22T01:15:04.522Z,0
2017-04-22T01:16:04.205Z,0
2017-04-22T01:17:04.217Z,0
2017-04-22T01:18:04.193Z,0
2017-04-22T01:19:04.173Z,0
2017-04-22T01:20:04.615Z,0
2017-04-22T01:21:04.249Z,0
2017-04-22T01:22:04.150Z,0
2017-04-22T01:23:04.135Z,0
2017-04-22T01:24:04.142Z,0
2017-04-22T01:25:04.377Z,0
2017-04-22T01:26:04.112Z,0
2017-04-22T01:27:03.805Z,0
2017-04-22T01:28:04.092Z,0
2017-04-22T01:29:04.242Z,0
2017-04-22T01:30:04.073Z,0
2017-04-22T01:31:04.361Z,0
2017-04-22T01:32:04.045Z,0
2017-04-22T01:33:03.739Z,0
2017-04-22T01:34:03.421Z,0
2017-04-22T01:35:03.717Z,0
2017-04-22T01:36:04.313Z,0
2017-04-22T01:37:04.160Z,0
2017-04-22T01:38:03.988Z,0
2017-04-22T01:39:03.989Z,0
2017-04-22T01:40:03.667Z,0
2017-04-22T01:41:04.206Z,0
2017-04-22T01:42:03.948Z,0
2017-04-22T01:43:03.939Z,0
2017-04-22T01:44:03.627Z,0
2017-04-22T01:45:03.916Z,0
2017-04-22T01:46:03.980Z,0
2017-04-22T01:47:03.903Z,0
2017-04-22T01:48:03.584Z,0
2017-04-22T01:49:03.876Z,0
2017-04-22T01:50:03.865Z,0
2017-04-22T01:51:04.154Z,0
2017-04-22T01:52:03.841Z,0
2017-04-22T01:53:03.536Z,0
2017-04-22T01:54:04.057Z,0
2017-04-22T01:55:03.814Z,0
2017-04-22T01:56:04.050Z,0
2017-04-22T01:57:03.789Z,0
2017-04-22T01:58:03.480Z,0
2017-04-22T01:59:03.771Z,0
2017-04-22T02:00:03.757Z,0
2017-04-22T02:01:04.045Z,0
2017-04-22T02:02:03.752Z,0
2017-04-22T02:03:03.728Z,0
2017-04-22T02:04:03.715Z,0
2017-04-22T02:05:03.716Z,0
2017-04-22T02:06:03.944Z,0
2017-04-22T02:07:03.685Z,0
2017-04-22T02:08:03.675Z,0
2017-04-22T02:09:03.664Z,0
2017-04-22T02:10:03.664Z,0
2017-04-22T02:11:03.940Z,0
2017-04-22T02:12:03.630Z,0
2017-04-22T02:13:03.650Z,0
2017-04-22T02:14:03.618Z,0
2017-04-22T02:15:03.606Z,0
2017-04-22T02:16:03.835Z,0
2017-04-22T02:17:03.577Z,0
2017-04-22T02:18:03.570Z,0
2017-04-22T02:19:03.553Z,0
2017-04-22T02:20:03.742Z,0
2017-04-22T02:21:03.832Z,0
2017-04-22T02:22:03.239Z,0
2017-04-22T02:23:03.517Z,0
2017-04-22T02:24:03.199Z,0
2017-04-22T02:25:03.498Z,0
2017-04-22T02:26:03.474Z,0
2017-04-22T02:27:03.466Z,0
2017-04-22T02:28:03.563Z,0
2017-04-22T02:29:03.145Z,0
2017-04-22T02:30:03.434Z,0
2017-04-22T02:31:03.679Z,0
2017-04-22T02:32:03.419Z,0
2017-04-22T02:33:03.411Z,0
2017-04-22T02:34:03.392Z,0
2017-04-22T02:35:03.383Z,0
2017-04-22T02:36:03.318Z,0
2017-04-22T02:37:03.375Z,0
2017-04-22T02:38:03.348Z,0
2017-04-22T02:39:03.337Z,0
2017-04-22T02:40:03.323Z,0
2017-04-22T02:41:03.286Z,0
2017-04-22T02:42:03.305Z,0
2017-04-22T02:43:03.292Z,0
2017-04-22T02:44:03.282Z,0
2017-04-22T02:45:03.273Z,0
2017-04-22T02:46:03.509Z,0
2017-04-22T02:47:03.245Z,0
2017-04-22T02:48:03.233Z,0
2017-04-22T02:49:03.225Z,0
2017-04-22T02:50:03.224Z,0
2017-04-22T02:51:03.506Z,0
2017-04-22T02:52:02.887Z,0
2017-04-22T02:53:03.188Z,0
2017-04-22T02:54:03.170Z,0
2017-04-22T02:55:03.155Z,0
2017-04-22T02:56:03.150Z,0
2017-04-22T02:57:02.861Z,0
2017-04-22T02:58:03.123Z,0
2017-04-22T02:59:03.127Z,0
2017-04-22T03:00:03.099Z,0
2017-04-22T03:01:03.576Z,0
2017-04-22T03:02:02.876Z,0
2017-04-22T03:03:03.071Z,0
2017-04-22T03:04:03.056Z,0
2017-04-22T03:05:03.043Z,0
2017-04-22T03:06:03.292Z,0
2017-04-22T03:07:03.025Z,0
2017-04-22T03:08:03.013Z,0
2017-04-22T03:09:03.035Z,0
2017-04-22T03:10:02.990Z,0
2017-04-22T03:11:02.975Z,0
2017-04-22T03:12:02.655Z,0
2017-04-22T03:13:02.967Z,0
2017-04-22T03:14:02.942Z,0
2017-04-22T03:15:02.324Z,0
2017-04-22T03:16:02.925Z,0
2017-04-22T03:17:02.864Z,0
2017-04-22T03:18:02.285Z,0
2017-04-22T03:19:03.057Z,0
2017-04-22T03:20:02.567Z,0
2017-04-22T03:21:02.249Z,0
2017-04-22T03:22:02.862Z,0
2017-04-22T03:23:02.533Z,0
2017-04-22T03:24:02.520Z,0
2017-04-22T03:25:02.810Z,0
2017-04-22T03:26:02.843Z,0
2017-04-22T03:27:03.094Z,0
2017-04-22T03:28:02.779Z,0
2017-04-22T03:29:02.764Z,0
2017-04-22T03:30:02.755Z,0
2017-04-22T03:31:02.762Z,0
2017-04-22T03:32:02.983Z,0
2017-04-22T03:33:02.719Z,0
2017-04-22T03:34:02.727Z,0
2017-04-22T03:35:02.694Z,0
2017-04-22T03:36:02.683Z,0
2017-04-22T03:37:02.618Z,0
2017-04-22T03:38:02.660Z,0
2017-04-22T03:39:02.646Z,0
2017-04-22T03:40:02.693Z,0
2017-04-22T03:41:02.621Z,5
2017-04-22T03:42:02.869Z,5
2017-04-22T03:43:02.599Z,5
2017-04-22T03:44:02.591Z,5
2017-04-22T03:45:02.574Z,5
2017-04-22T03:46:02.561Z,5
2017-04-22T03:47:02.918Z,5
2017-04-22T03:48:02.544Z,5
2017-04-22T03:49:02.535Z,5
2017-04-22T03:50:02.513Z,10
2017-04-22T03:51:02.510Z,10
2017-04-22T03:52:02.515Z,10
2017-04-22T03:53:02.483Z,10
2017-04-22T03:54:02.467Z,10
2017-04-22T03:55:02.154Z,15
2017-04-22T03:56:02.142Z,15
2017-04-22T03:57:02.683Z,15
2017-04-22T03:58:02.114Z,20
2017-04-22T03:59:02.102Z,20
2017-04-22T04:00:02.396Z,25
2017-04-22T04:01:02.383Z,25
2017-04-22T04:02:02.678Z,25
2017-04-22T04:03:02.363Z,30
2017-04-22T04:04:02.347Z,30
2017-04-22T04:05:02.338Z,35
2017-04-22T04:06:02.325Z,35
2017-04-22T04:07:02.766Z,40
2017-04-22T04:08:02.304Z,40
2017-04-22T04:09:02.290Z,40
2017-04-22T04:10:02.277Z,45
2017-04-22T04:11:02.264Z,45
2017-04-22T04:12:02.262Z,45
2017-04-22T04:13:02.260Z,45
2017-04-22T04:14:02.229Z,45
2017-04-22T04:15:02.221Z,50
2017-04-22T04:16:02.344Z,50
2017-04-22T04:17:02.498Z,50
2017-04-22T04:18:02.193Z,55
2017-04-22T04:19:02.169Z,60
2017-04-22T04:20:02.550Z,70
2017-04-22T04:21:02.295Z,65
2017-04-22T04:22:02.085Z,75
2017-04-22T04:23:02.125Z,75
2017-04-22T04:24:01.807Z,75
2017-04-22T04:25:02.102Z,80
2017-04-22T04:26:02.093Z,85
2017-04-22T04:27:02.333Z,85
2017-04-22T04:28:02.068Z,90
2017-04-22T04:29:01.752Z,90
2017-04-22T04:30:02.042Z,95
2017-04-22T04:31:02.032Z,100
2017-04-22T04:32:02.322Z,105
2017-04-22T04:33:02.009Z,110
2017-04-22T04:34:01.999Z,115
2017-04-22T04:35:01.993Z,120
2017-04-22T04:36:01.976Z,125
2017-04-22T04:37:02.266Z,125
2017-04-22T04:38:01.950Z,130
2017-04-22T04:39:01.943Z,135
2017-04-22T04:40:01.631Z,140
2017-04-22T04:41:01.313Z,140
2017-04-22T04:42:02.163Z,140
2017-04-22T04:43:01.898Z,140
2017-04-22T04:44:01.886Z,140
2017-04-22T04:45:01.878Z,145
2017-04-22T04:46:01.866Z,150
2017-04-22T04:47:02.159Z,150
2017-04-22T04:48:01.841Z,150
2017-04-22T04:49:01.830Z,150
2017-04-22T04:50:01.824Z,150
2017-04-22T04:51:01.814Z,155
2017-04-22T04:52:02.105Z,165
2017-04-22T04:53:01.789Z,170
2017-04-22T04:54:01.779Z,170
2017-04-22T04:55:01.772Z,175
2017-04-22T04:56:01.768Z,180
2017-04-22T04:57:01.697Z,190
2017-04-22T04:58:01.434Z,230
2017-04-22T04:59:01.726Z,215
2017-04-22T05:00:01.715Z,210
2017-04-22T05:01:01.706Z,200
2017-04-22T05:02:01.689Z,205
2017-04-22T05:03:01.685Z,210
2017-04-22T05:04:01.374Z,210
2017-04-22T05:05:01.692Z,205
2017-04-22T05:06:01.654Z,245
2017-04-22T05:07:01.944Z,215
2017-04-22T05:08:01.636Z,220
2017-04-22T05:09:01.631Z,195
2017-04-22T05:10:01.313Z,190
2017-04-22T05:11:01.332Z,205
2017-04-22T05:12:01.869Z,195
2017-04-22T05:13:01.593Z,170
2017-04-22T05:14:01.576Z,170
2017-04-22T05:15:01.268Z,170
2017-04-22T05:16:01.256Z,170
2017-04-22T05:17:01.796Z,140
2017-04-22T05:18:01.547Z,150
2017-04-22T05:19:01.238Z,165
2017-04-22T05:20:01.523Z,150
2017-04-22T05:21:01.511Z,135
2017-04-22T05:22:01.499Z,150
2017-04-22T05:23:01.495Z,170
2017-04-22T05:24:01.482Z,165
2017-04-22T05:25:01.172Z,150
2017-04-22T05:26:01.733Z,145
2017-04-22T05:27:01.715Z,135
2017-04-22T05:28:01.450Z,130
2017-04-22T05:29:01.444Z,150
2017-04-22T05:30:01.435Z,140
2017-04-22T05:31:01.425Z,165
2017-04-22T05:32:01.709Z,200
2017-04-22T05:33:01.400Z,220
2017-04-22T05:34:01.392Z,235
2017-04-22T05:35:01.088Z,235
2017-04-22T05:36:01.374Z,270
2017-04-22T05:37:01.617Z,260
2017-04-22T05:38:01.067Z,235
2017-04-22T05:39:01.345Z,260
2017-04-22T05:40:01.205Z,245
2017-04-22T05:41:01.331Z,245
2017-04-22T05:42:01.621Z,250
2017-04-22T05:43:01.321Z,250
2017-04-22T05:44:01.306Z,240
2017-04-22T05:45:00.998Z,225
2017-04-22T05:46:01.286Z,220
2017-04-22T05:47:01.529Z,245
2017-04-22T05:48:01.270Z,240
2017-04-22T05:49:01.260Z,210
2017-04-22T05:50:01.253Z,195
2017-04-22T05:51:01.323Z,190
2017-04-22T05:52:01.534Z,180
2017-04-22T05:53:01.238Z,180
2017-04-22T05:54:01.221Z,200
2017-04-22T05:55:01.208Z,195
2017-04-22T05:56:01.203Z,190
2017-04-22T05:57:01.491Z,275
2017-04-22T05:58:00.880Z,335
2017-04-22T05:59:01.176Z,480
2017-04-22T06:00:01.170Z,430
2017-04-22T06:01:01.157Z,420
2017-04-22T06:02:01.451Z,730
2017-04-22T06:03:01.147Z,720
2017-04-22T06:04:01.133Z,650
2017-04-22T06:05:01.124Z,505
2017-04-22T06:06:00.812Z,850
2017-04-22T06:07:01.110Z,355
2017-04-22T06:08:01.361Z,295
2017-04-22T06:09:01.102Z,345
2017-04-22T06:10:01.089Z,430
2017-04-22T06:11:01.083Z,365
2017-04-22T06:12:01.089Z,370
2017-04-22T06:13:01.373Z,435
2017-04-22T06:14:01.059Z,480
2017-04-22T06:15:01.062Z,815
2017-04-22T06:16:01.043Z,630
2017-04-22T06:17:01.048Z,685
2017-04-22T06:18:01.335Z,955
2017-04-22T06:19:00.727Z,515
2017-04-22T06:20:01.024Z,425
2017-04-22T06:21:01.018Z,730
2017-04-22T06:22:00.723Z,1130
2017-04-22T06:23:01.370Z,1340
2017-04-22T06:24:01.005Z,1365
2017-04-22T06:25:01.002Z,1460
2017-04-22T06:26:00.692Z,530
2017-04-22T06:27:00.997Z,620
2017-04-22T06:28:01.284Z,380
2017-04-22T06:29:01.195Z,365
2017-04-22T06:30:00.982Z,1235
2017-04-22T06:31:00.992Z,1350
2017-04-22T06:32:00.668Z,1385
2017-04-22T06:33:01.228Z,800
2017-04-22T06:34:01.248Z,785
2017-04-22T06:35:00.667Z,580
2017-04-22T06:36:01.658Z,1485
2017-04-22T06:37:00.964Z,505
2017-04-22T06:38:01.312Z,1575
2017-04-22T06:39:00.956Z,1450
2017-04-22T06:40:01.078Z,550
2017-04-22T06:41:00.950Z,545
2017-04-22T06:42:00.949Z,945
2017-04-22T06:43:01.212Z,975
2017-04-22T06:44:00.952Z,1465
2017-04-22T06:45:00.951Z,610
2017-04-22T06:46:00.951Z,1395
2017-04-22T06:47:00.946Z,570
2017-04-22T06:48:01.299Z,430
2017-04-22T06:49:00.956Z,1280
2017-04-22T06:50:00.953Z,405
2017-04-22T06:51:00.946Z,540
2017-04-22T06:52:00.674Z,730
2017-04-22T06:53:01.251Z,1615
2017-04-22T06:54:00.951Z,410
2017-04-22T06:55:00.986Z,365
2017-04-22T06:56:00.975Z,415
2017-04-22T06:57:00.366Z,435
2017-04-22T06:58:00.946Z,570
2017-04-22T06:59:00.953Z,680
2017-04-22T07:00:02.318Z,890
2017-04-22T07:01:00.947Z,400
2017-04-22T07:02:00.981Z,515
2017-04-22T07:03:01.248Z,855
2017-04-22T07:04:00.946Z,755
2017-04-22T07:05:00.941Z,620
2017-04-22T07:06:00.640Z,1475
2017-04-22T07:07:00.939Z,600
2017-04-22T07:08:01.194Z,1020
2017-04-22T07:09:00.945Z,1370
2017-04-22T07:10:00.943Z,765
2017-04-22T07:11:00.941Z,780
2017-04-22T07:12:00.943Z,1615
2017-04-22T07:13:01.193Z,1220
2017-04-22T07:14:01.069Z,655
2017-04-22T07:15:00.955Z,500
2017-04-22T07:16:00.945Z,465
2017-04-22T07:17:00.941Z,510
2017-04-22T07:18:01.190Z,560
2017-04-22T07:19:00.643Z,585
2017-04-22T07:20:00.941Z,470
2017-04-22T07:21:01.037Z,445
2017-04-22T07:22:00.956Z,710
2017-04-22T07:23:00.993Z,550
2017-04-22T07:24:00.947Z,590
2017-04-22T07:25:00.935Z,515
2017-04-22T07:26:00.933Z,375
2017-04-22T07:27:01.066Z,310
2017-04-22T07:28:03.332Z,360
2017-04-22T07:29:00.939Z,380
2017-04-22T07:30:00.925Z,385
2017-04-22T07:31:00.930Z,425
2017-04-22T07:32:00.922Z,450
2017-04-22T07:33:01.224Z,460
2017-04-22T07:34:01.027Z,480
2017-04-22T07:35:00.941Z,485
2017-04-22T07:36:00.608Z,495
2017-04-22T07:37:00.611Z,455
2017-04-22T07:38:00.864Z,445
2017-04-22T07:39:00.908Z,420
2017-04-22T07:40:00.993Z,420
2017-04-22T07:41:00.898Z,420
2017-04-22T07:42:00.589Z,445
2017-04-22T07:43:01.196Z,485
2017-04-22T07:44:00.599Z,545
2017-04-22T07:45:00.883Z,600
2017-04-22T07:46:00.902Z,690
2017-04-22T07:47:00.876Z,825
2017-04-22T07:48:01.173Z,1800
2017-04-22T07:49:00.867Z,965
2017-04-22T07:50:00.863Z,1210
2017-04-22T07:51:00.864Z,1600
2017-04-22T07:52:00.858Z,1790
2017-04-22T07:53:01.100Z,1870
2017-04-22T07:54:00.547Z,1545
2017-04-22T07:55:00.244Z,895
2017-04-22T07:56:00.852Z,530
2017-04-22T07:57:00.845Z,545
2017-04-22T07:58:01.144Z,595
2017-04-22T07:59:00.847Z,625
2017-04-22T08:00:00.842Z,590
2017-04-22T08:01:00.832Z,540
2017-04-22T08:02:00.531Z,460
2017-04-22T08:03:01.085Z,440
2017-04-22T08:04:00.834Z,485
2017-04-22T08:05:00.830Z,595
2017-04-22T08:06:00.536Z,1075
2017-04-22T08:07:00.523Z,1675
2017-04-22T08:08:01.130Z,565
2017-04-22T08:09:00.826Z,525
2017-04-22T08:10:00.835Z,540
2017-04-22T08:11:00.817Z,640
2017-04-22T08:12:00.525Z,610
2017-04-22T08:13:01.127Z,770
2017-04-22T08:14:00.813Z,1380
2017-04-22T08:15:00.813Z,505
2017-04-22T08:16:00.513Z,525
2017-04-22T08:17:00.510Z,495
2017-04-22T08:18:01.105Z,1765
2017-04-22T08:19:00.800Z,520
2017-04-22T08:20:00.797Z,530
2017-04-22T08:21:00.799Z,545
2017-04-22T08:22:00.793Z,540
2017-04-22T08:23:01.141Z,475
2017-04-22T08:24:00.488Z,360
2017-04-22T08:25:00.808Z,265
2017-04-22T08:26:00.479Z,235
2017-04-22T08:27:00.796Z,235
2017-04-22T08:28:01.024Z,260
2017-04-22T08:29:00.770Z,295
2017-04-22T08:30:00.773Z,305
2017-04-22T08:31:00.470Z,340
2017-04-22T08:32:00.758Z,395
2017-04-22T08:33:01.060Z,510
2017-04-22T08:34:00.764Z,670
2017-04-22T08:35:00.765Z,745
2017-04-22T08:36:00.743Z,695
2017-04-22T08:37:00.760Z,565
2017-04-22T08:38:00.987Z,455
2017-04-22T08:39:00.749Z,375
2017-04-22T08:40:00.729Z,310
2017-04-22T08:41:00.733Z,265
2017-04-22T08:42:00.444Z,310
2017-04-22T08:43:01.076Z,430
2017-04-22T08:44:00.718Z,475
2017-04-22T08:45:00.417Z,490
2017-04-22T08:46:00.714Z,495
2017-04-22T08:47:01.776Z,545
2017-04-22T08:48:00.948Z,585
2017-04-22T08:49:00.398Z,630
2017-04-22T08:50:00.951Z,640
2017-04-22T08:51:06.067Z,635
2017-04-22T08:52:00.674Z,635
2017-04-22T08:53:00.927Z,605
2017-04-22T08:54:00.670Z,555
2017-04-22T08:55:00.665Z,535
2017-04-22T08:56:00.353Z,525
2017-04-22T08:57:00.654Z,555
2017-04-22T08:58:00.991Z,605
2017-04-22T08:59:00.647Z,625
2017-04-22T09:00:00.645Z,605
2017-04-22T09:01:00.644Z,545
2017-04-22T09:02:00.643Z,455
2017-04-22T09:03:01.017Z,435
2017-04-22T09:04:00.622Z,460
2017-04-22T09:05:00.620Z,485
2017-04-22T09:06:00.618Z,520
2017-04-22T09:07:00.611Z,545
2017-04-22T09:08:00.891Z,485
2017-04-22T09:09:00.604Z,440
2017-04-22T09:10:00.606Z,475
2017-04-22T09:11:00.592Z,520
2017-04-22T09:12:00.587Z,555
2017-04-22T09:13:00.848Z,565
2017-04-22T09:14:00.587Z,500
2017-04-22T09:15:00.576Z,445
2017-04-22T09:16:00.583Z,395
2017-04-22T09:17:00.576Z,380
2017-04-22T09:18:00.862Z,365
2017-04-22T09:19:00.568Z,350
2017-04-22T09:20:00.569Z,340
2017-04-22T09:21:00.242Z,360
2017-04-22T09:22:00.557Z,435
2017-04-22T09:23:00.842Z,505
2017-04-22T09:24:00.534Z,525
2017-04-22T09:25:00.538Z,550
2017-04-22T09:26:00.221Z,605
2017-04-22T09:27:00.526Z,640
2017-04-22T09:28:00.766Z,660
2017-04-22T09:29:00.514Z,680
2017-04-22T09:30:00.511Z,705
2017-04-22T09:31:00.524Z,660
2017-04-22T09:32:00.502Z,580
2017-04-22T09:33:00.842Z,525
2017-04-22T09:34:00.495Z,485
2017-04-22T09:35:00.506Z,445
2017-04-22T09:36:00.500Z,390
2017-04-22T09:37:00.483Z,390
2017-04-22T09:38:00.724Z,395
2017-04-22T09:39:00.466Z,420
2017-04-22T09:40:00.458Z,470
2017-04-22T09:41:00.460Z,605
2017-04-22T09:42:00.448Z,740
2017-04-22T09:43:00.697Z,710
2017-04-22T09:44:00.454Z,625
2017-04-22T09:45:00.449Z,555
2017-04-22T09:46:00.428Z,505
2017-04-22T09:47:00.436Z,465
2017-04-22T09:48:00.794Z,445
2017-04-22T09:49:00.467Z,440
2017-04-22T09:50:00.439Z,445
2017-04-22T09:51:00.102Z,440
2017-04-22T09:52:00.415Z,420
2017-04-22T09:53:00.699Z,405
2017-04-22T09:54:00.095Z,380
2017-04-22T09:55:00.396Z,365
2017-04-22T09:56:00.392Z,350
2017-04-22T09:56:59.770Z,320
2017-04-22T09:58:00.374Z,300
2017-04-22T09:59:00.370Z,300
2017-04-22T10:00:00.365Z,325
2017-04-22T10:01:00.359Z,350
2017-04-22T10:02:00.354Z,365
2017-04-22T10:03:00.633Z,375
2017-04-22T10:04:00.040Z,410
2017-04-22T10:05:00.337Z,460
2017-04-22T10:06:00.326Z,510
2017-04-22T10:07:00.323Z,550
2017-04-22T10:08:00.621Z,565
2017-04-22T10:09:00.314Z,585
2017-04-22T10:10:00.310Z,595
2017-04-22T10:11:00.299Z,540
2017-04-22T10:12:00.302Z,515
2017-04-22T10:13:00.620Z,500
2017-04-22T10:14:00.291Z,545
2017-04-22T10:15:00.285Z,590
2017-04-22T10:16:00.275Z,620
2017-04-22T10:16:59.966Z,685
2017-04-22T10:18:00.530Z,735
2017-04-22T10:19:00.369Z,745
2017-04-22T10:20:00.280Z,720
2017-04-22T10:21:00.248Z,705
2017-04-22T10:22:00.288Z,680
2017-04-22T10:23:00.493Z,635
2017-04-22T10:24:00.237Z,625
2017-04-22T10:25:00.234Z,685
2017-04-22T10:25:59.923Z,730
2017-04-22T10:27:00.247Z,730
2017-04-22T10:28:00.526Z,705
2017-04-22T10:29:00.279Z,690
2017-04-22T10:30:00.250Z,670
2017-04-22T10:31:00.203Z,635
2017-04-22T10:32:00.201Z,590
2017-04-22T10:33:00.513Z,595
2017-04-22T10:33:59.888Z,660
2017-04-22T10:35:00.039Z,705
2017-04-22T10:36:00.191Z,740
2017-04-22T10:37:00.187Z,715
2017-04-22T10:38:00.493Z,705
2017-04-22T10:39:00.176Z,695
2017-04-22T10:40:00.170Z,625
2017-04-22T10:41:00.161Z,550
2017-04-22T10:42:00.156Z,520
2017-04-22T10:43:00.478Z,485
2017-04-22T10:44:00.152Z,460
2017-04-22T10:45:00.148Z,465
2017-04-22T10:46:00.143Z,460
2017-04-22T10:47:00.139Z,450
2017-04-22T10:48:00.405Z,535
2017-04-22T10:48:59.829Z,665
2017-04-22T10:49:59.832Z,710
2017-04-22T10:50:59.816Z,710
2017-04-22T10:52:00.119Z,700
2017-04-22T10:53:00.429Z,675
2017-04-22T10:54:00.111Z,660
2017-04-22T10:55:00.111Z,635
2017-04-22T10:56:00.101Z,600
2017-04-22T10:57:00.099Z,530
2017-04-22T10:58:00.413Z,490
2017-04-22T10:59:00.099Z,435
2017-04-22T10:59:59.787Z,400
2017-04-22T11:01:00.084Z,390
2017-04-22T11:02:00.078Z,365
2017-04-22T11:03:00.325Z,385
2017-04-22T11:03:59.771Z,450
2017-04-22T11:05:00.069Z,490
2017-04-22T11:06:00.059Z,450
2017-04-22T11:06:59.757Z,375
2017-04-22T11:08:00.301Z,325
2017-04-22T11:09:00.049Z,295
2017-04-22T11:10:00.050Z,270
2017-04-22T11:11:00.041Z,260
2017-04-22T11:12:00.036Z,260
2017-04-22T11:13:00.334Z,260
2017-04-22T11:13:59.729Z,260
2017-04-22T11:15:00.041Z,275
2017-04-22T11:16:00.024Z,330
2017-04-22T11:17:00.215Z,400
2017-04-22T11:18:00.260Z,465
2017-04-22T11:19:00.007Z,430
2017-04-22T11:19:59.997Z,405
2017-04-22T11:20:59.995Z,415
2017-04-22T11:21:59.988Z,475
2017-04-22T11:23:00.236Z,590
2017-04-22T11:24:00.099Z,600
2017-04-22T11:24:59.987Z,540
2017-04-22T11:25:59.969Z,490
2017-04-22T11:26:59.961Z,490
2017-04-22T11:28:00.259Z,485
2017-04-22T11:28:59.957Z,515
2017-04-22T11:29:59.646Z,475
2017-04-22T11:30:59.942Z,470
2017-04-22T11:31:59.943Z,470
2017-04-22T11:33:00.196Z,425
2017-04-22T11:33:59.930Z,315
2017-04-22T11:34:59.929Z,260
2017-04-22T11:35:59.922Z,245
2017-04-22T11:36:59.917Z,245
2017-04-22T11:38:00.272Z,265
2017-04-22T11:38:59.910Z,250
2017-04-22T11:39:59.903Z,235
2017-04-22T11:40:59.895Z,235
2017-04-22T11:42:00.104Z,235
2017-04-22T11:43:00.135Z,240
2017-04-22T11:43:59.882Z,240
2017-04-22T11:44:59.573Z,250
2017-04-22T11:45:59.867Z,265
2017-04-22T11:46:59.868Z,280
2017-04-22T11:47:59.923Z,290
2017-04-22T11:48:59.854Z,305
2017-04-22T11:49:59.861Z,310
2017-04-22T11:50:59.849Z,330
2017-04-22T11:51:59.842Z,340
2017-04-22T11:53:00.175Z,345
2017-04-22T11:53:59.828Z,355
2017-04-22T11:54:59.825Z,380
2017-04-22T11:55:59.810Z,395
2017-04-22T11:56:59.506Z,430
2017-04-22T11:58:00.055Z,470
2017-04-22T11:58:59.800Z,475
2017-04-22T11:59:59.796Z,385
2017-04-22T12:00:59.785Z,300
2017-04-22T12:01:59.793Z,290
2017-04-22T12:03:00.125Z,345
2017-04-22T12:03:59.776Z,415
2017-04-22T12:04:59.771Z,430
2017-04-22T12:05:59.762Z,415
2017-04-22T12:06:59.757Z,470
2017-04-22T12:08:00.006Z,480
2017-04-22T12:08:59.747Z,470
2017-04-22T12:09:59.441Z,515
2017-04-22T12:10:59.738Z,605
2017-04-22T12:11:59.924Z,630
2017-04-22T12:12:59.980Z,640
2017-04-22T12:13:59.722Z,595
2017-04-22T12:14:59.718Z,575
2017-04-22T12:15:59.709Z,570
2017-04-22T12:16:59.713Z,515
2017-04-22T12:18:00.010Z,540
2017-04-22T12:19:00.189Z,560
2017-04-22T12:19:59.695Z,525
2017-04-22T12:20:59.689Z,445
2017-04-22T12:21:59.684Z,455
2017-04-22T12:22:59.939Z,490
2017-04-22T12:23:59.390Z,530
2017-04-22T12:24:59.679Z,585
2017-04-22T12:25:59.668Z,575
2017-04-22T12:26:59.727Z,585
2017-04-22T12:27:59.915Z,565
2017-04-22T12:28:59.661Z,490
2017-04-22T12:29:59.657Z,455
2017-04-22T12:30:59.651Z,495
2017-04-22T12:31:59.650Z,545
2017-04-22T12:32:59.949Z,550
2017-04-22T12:33:59.641Z,575
2017-04-22T12:34:59.636Z,555
2017-04-22T12:35:59.637Z,495
2017-04-22T12:36:59.627Z,485
2017-04-22T12:37:59.630Z,510
2017-04-22T12:38:59.622Z,535
2017-04-22T12:39:59.314Z,515
2017-04-22T12:40:59.321Z,520
2017-04-22T12:41:59.610Z,520
2017-04-22T12:42:59.909Z,520
2017-04-22T12:43:59.603Z,515
2017-04-22T12:44:59.599Z,450
2017-04-22T12:45:59.325Z,425
2017-04-22T12:46:59.596Z,485
2017-04-22T12:47:59.843Z,515
2017-04-22T12:48:59.591Z,490
2017-04-22T12:49:59.582Z,470
2017-04-22T12:50:59.579Z,425
2017-04-22T12:51:59.573Z,395
2017-04-22T12:52:59.821Z,390
2017-04-22T12:53:59.601Z,400
2017-04-22T12:54:59.563Z,415
2017-04-22T12:55:59.556Z,435
2017-04-22T12:56:59.567Z,465
2017-04-22T12:57:59.906Z,480
2017-04-22T12:58:59.557Z,525
2017-04-22T12:59:59.552Z,570
2017-04-22T13:00:59.544Z,580
2017-04-22T13:01:59.540Z,600
2017-04-22T13:02:59.843Z,605
2017-04-22T13:03:59.537Z,565
2017-04-22T13:04:59.536Z,570
2017-04-22T13:05:59.527Z,610
2017-04-22T13:06:59.603Z,550
2017-04-22T13:07:59.780Z,485
2017-04-22T13:08:59.517Z,505
2017-04-22T13:09:59.213Z,545
2017-04-22T13:10:59.511Z,570
2017-04-22T13:11:59.510Z,575
2017-04-22T13:12:59.754Z,565
2017-04-22T13:13:59.501Z,550
2017-04-22T13:14:59.503Z,515
2017-04-22T13:15:59.495Z,495
2017-04-22T13:16:59.499Z,485
2017-04-22T13:17:59.802Z,470
2017-04-22T13:18:59.486Z,510
2017-04-22T13:19:59.485Z,525
2017-04-22T13:20:59.506Z,525
2017-04-22T13:21:59.474Z,540
2017-04-22T13:23:01.471Z,540
2017-04-22T13:23:59.468Z,530
2017-04-22T13:24:59.476Z,515
2017-04-22T13:25:59.462Z,505
2017-04-22T13:26:59.465Z,515
2017-04-22T13:27:59.629Z,530
2017-04-22T13:28:59.858Z,555
2017-04-22T13:29:59.455Z,550
2017-04-22T13:30:59.142Z,540
2017-04-22T13:31:59.442Z,540
2017-04-22T13:32:59.142Z,520
2017-04-22T13:33:59.691Z,500
2017-04-22T13:34:59.435Z,495
2017-04-22T13:35:59.440Z,490
2017-04-22T13:36:59.426Z,525
2017-04-22T13:37:59.423Z,550
2017-04-22T13:38:59.722Z,580
2017-04-22T13:39:58.815Z,555
2017-04-22T13:40:59.439Z,495
2017-04-22T13:41:59.411Z,435
2017-04-22T13:42:59.412Z,395
2017-04-22T13:43:59.826Z,345
2017-04-22T13:44:59.398Z,310
2017-04-22T13:45:59.430Z,280
2017-04-22T13:46:59.394Z,270
2017-04-22T13:47:59.091Z,270
2017-04-22T13:48:59.395Z,280
2017-04-22T13:49:59.391Z,305
2017-04-22T13:50:59.523Z,315
2017-04-22T13:51:59.383Z,305
2017-04-22T13:52:59.381Z,265
2017-04-22T13:53:59.622Z,200
2017-04-22T13:54:59.368Z,160
2017-04-22T13:55:59.365Z,135
2017-04-22T13:56:59.360Z,115
2017-04-22T13:57:59.358Z,105
2017-04-22T13:58:59.656Z,100
2017-04-22T13:59:59.348Z,95
2017-04-22T14:00:58.734Z,90
2017-04-22T14:01:59.348Z,85